sensor_id;sensor_type;location;lat;lon;timestamp;pressure;altitude;pressure_sealevel;temperature;humidity
39739;BME280;25422;48.286;8.484;2023-08-24T00:00:29;94406.13;;;15.77;100.00
39739;BME280;25422;48.286;8.484;2023-08-24T00:02:57;94404.91;;;15.73;100.00
39739;BME280;25422;48.286;8.484;2023-08-24T00:05:23;94402.84;;;15.68;100.00
39739;BME280;25422;48.286;8.484;2023-08-24T00:07:48;94404.84;;;15.59;100.00
39739;BME280;25422;48.286;8.484;2023-08-24T00:10:14;94412.66;;;15.46;100.00
39739;BME280;25422;48.286;8.484;2023-08-24T00:12:39;94403.47;;;15.35;100.00
39739;BME280;25422;48.286;8.484;2023-08-24T00:15:07;94409.81;;;15.47;100.00
39739;BME280;25422;48.286;8.484;2023-08-24T00:17:34;94408.28;;;15.60;100.00
39739;BME280;25422;48.286;8.484;2023-08-24T00:19:59;94410.50;;;15.56;100.00
39739;BME280;25422;48.286;8.484;2023-08-24T00:22:25;94404.78;;;15.52;100.00
39739;BME280;25422;48.286;8.484;2023-08-24T00:24:50;94400.31;;;15.53;100.00
39739;BME280;25422;48.286;8.484;2023-08-24T00:27:15;94402.41;;;15.58;100.00
39739;BME280;25422;48.286;8.484;2023-08-24T00:29:41;94409.13;;;15.67;100.00
39739;BME280;25422;48.286;8.484;2023-08-24T00:32:06;94401.63;;;15.71;100.00
39739;BME280;25422;48.286;8.484;2023-08-24T00:34:33;94402.06;;;15.74;100.00
39739;BME280;25422;48.286;8.484;2023-08-24T00:36:58;94396.66;;;15.82;100.00
39739;BME280;25422;48.286;8.484;2023-08-24T00:39:24;94387.53;;;15.85;100.00
39739;BME280;25422;48.286;8.484;2023-08-24T00:41:49;94383.69;;;15.88;100.00
39739;BME280;25422;48.286;8.484;2023-08-24T00:44:14;94380.41;;;15.85;100.00
39739;BME280;25422;48.286;8.484;2023-08-24T00:46:40;94371.47;;;15.80;100.00
39739;BME280;25422;48.286;8.484;2023-08-24T00:49:06;94372.66;;;15.77;100.00
39739;BME280;25422;48.286;8.484;2023-08-24T00:51:32;94367.16;;;15.72;100.00
39739;BME280;25422;48.286;8.484;2023-08-24T00:53:58;94368.75;;;15.66;100.00
39739;BME280;25422;48.286;8.484;2023-08-24T00:56:24;94362.56;;;15.46;100.00
39739;BME280;25422;48.286;8.484;2023-08-24T00:58:50;94357.06;;;15.41;100.00
39739;BME280;25422;48.286;8.484;2023-08-24T01:01:17;94354.69;;;15.17;100.00
39739;BME280;25422;48.286;8.484;2023-08-24T01:03:43;94354.84;;;15.09;100.00
39739;BME280;25422;48.286;8.484;2023-08-24T01:06:09;94349.75;;;15.01;100.00
39739;BME280;25422;48.286;8.484;2023-08-24T01:08:36;94349.13;;;14.99;100.00
39739;BME280;25422;48.286;8.484;2023-08-24T01:11:09;94342.06;;;15.06;100.00
39739;BME280;25422;48.286;8.484;2023-08-24T01:14:04;94351.81;;;15.12;100.00
39739;BME280;25422;48.286;8.484;2023-08-24T01:16:33;94342.22;;;14.98;100.00
39739;BME280;25422;48.286;8.484;2023-08-24T01:19:00;94343.22;;;14.97;100.00
39739;BME280;25422;48.286;8.484;2023-08-24T01:21:28;94357.25;;;15.04;100.00
39739;BME280;25422;48.286;8.484;2023-08-24T01:24:12;94355.44;;;15.05;100.00
39739;BME280;25422;48.286;8.484;2023-08-24T01:26:40;94353.22;;;15.08;100.00
39739;BME280;25422;48.286;8.484;2023-08-24T01:29:07;94352.66;;;15.13;100.00
39739;BME280;25422;48.286;8.484;2023-08-24T01:31:33;94351.88;;;15.19;100.00
39739;BME280;25422;48.286;8.484;2023-08-24T01:33:58;94348.91;;;15.29;100.00
39739;BME280;25422;48.286;8.484;2023-08-24T01:36:25;94351.59;;;15.36;100.00
39739;BME280;25422;48.286;8.484;2023-08-24T01:38:59;94347.94;;;15.43;100.00
39739;BME280;25422;48.286;8.484;2023-08-24T01:41:35;94341.28;;;15.47;100.00
39739;BME280;25422;48.286;8.484;2023-08-24T01:44:04;94347.78;;;15.51;100.00
39739;BME280;25422;48.286;8.484;2023-08-24T01:46:32;94338.63;;;15.47;100.00
39739;BME280;25422;48.286;8.484;2023-08-24T01:48:58;94344.31;;;15.44;100.00
39739;BME280;25422;48.286;8.484;2023-08-24T01:51:25;94339.44;;;15.41;100.00
39739;BME280;25422;48.286;8.484;2023-08-24T01:53:52;94335.38;;;15.39;100.00
39739;BME280;25422;48.286;8.484;2023-08-24T01:56:18;94333.34;;;15.41;100.00
39739;BME280;25422;48.286;8.484;2023-08-24T01:58:43;94327.28;;;15.47;100.00
39739;BME280;25422;48.286;8.484;2023-08-24T02:01:09;94323.06;;;15.52;100.00
39739;BME280;25422;48.286;8.484;2023-08-24T02:03:35;94320.41;;;15.52;100.00
39739;BME280;25422;48.286;8.484;2023-08-24T02:06:00;94315.16;;;15.52;100.00
39739;BME280;25422;48.286;8.484;2023-08-24T02:08:29;94309.47;;;15.56;100.00
39739;BME280;25422;48.286;8.484;2023-08-24T02:10:55;94307.66;;;15.56;100.00
39739;BME280;25422;48.286;8.484;2023-08-24T02:13:20;94308.69;;;15.62;100.00
39739;BME280;25422;48.286;8.484;2023-08-24T02:15:45;94308.28;;;15.65;100.00
39739;BME280;25422;48.286;8.484;2023-08-24T02:18:11;94304.66;;;15.66;100.00
39739;BME280;25422;48.286;8.484;2023-08-24T02:20:37;94304.25;;;15.69;100.00
39739;BME280;25422;48.286;8.484;2023-08-24T02:23:04;94305.88;;;15.70;100.00
39739;BME280;25422;48.286;8.484;2023-08-24T02:25:29;94304.66;;;15.66;100.00
39739;BME280;25422;48.286;8.484;2023-08-24T02:27:55;94299.97;;;15.68;100.00
39739;BME280;25422;48.286;8.484;2023-08-24T02:30:20;94301.56;;;15.56;100.00
39739;BME280;25422;48.286;8.484;2023-08-24T02:32:45;94306.00;;;15.48;100.00
39739;BME280;25422;48.286;8.484;2023-08-24T02:35:11;94305.19;;;15.48;100.00
39739;BME280;25422;48.286;8.484;2023-08-24T02:37:36;94302.16;;;15.51;100.00
39739;BME280;25422;48.286;8.484;2023-08-24T02:40:02;94297.13;;;15.56;100.00
39739;BME280;25422;48.286;8.484;2023-08-24T02:42:30;94300.97;;;15.60;100.00
39739;BME280;25422;48.286;8.484;2023-08-24T02:44:57;94296.13;;;15.57;100.00
39739;BME280;25422;48.286;8.484;2023-08-24T02:47:22;94292.03;;;15.55;100.00
39739;BME280;25422;48.286;8.484;2023-08-24T02:49:47;94295.28;;;15.57;100.00
39739;BME280;25422;48.286;8.484;2023-08-24T02:52:13;94288.00;;;15.59;100.00
39739;BME280;25422;48.286;8.484;2023-08-24T02:54:38;94290.44;;;15.60;100.00
39739;BME280;25422;48.286;8.484;2023-08-24T02:57:03;94294.69;;;15.55;100.00
39739;BME280;25422;48.286;8.484;2023-08-24T02:59:29;94294.06;;;15.52;100.00
39739;BME280;25422;48.286;8.484;2023-08-24T03:01:54;94295.69;;;15.54;100.00
39739;BME280;25422;48.286;8.484;2023-08-24T03:04:20;94290.00;;;15.57;100.00
39739;BME280;25422;48.286;8.484;2023-08-24T03:06:45;94286.41;;;15.71;100.00
39739;BME280;25422;48.286;8.484;2023-08-24T03:09:10;94291.69;;;15.71;100.00
39739;BME280;25422;48.286;8.484;2023-08-24T03:11:36;94291.69;;;15.71;100.00
39739;BME280;25422;48.286;8.484;2023-08-24T03:14:01;94287.81;;;15.67;100.00
39739;BME280;25422;48.286;8.484;2023-08-24T03:16:27;94275.19;;;15.56;100.00
39739;BME280;25422;48.286;8.484;2023-08-24T03:18:52;94272.50;;;15.42;100.00
39739;BME280;25422;48.286;8.484;2023-08-24T03:21:18;94265.00;;;15.39;100.00
39739;BME280;25422;48.286;8.484;2023-08-24T03:23:43;94265.63;;;15.41;100.00
39739;BME280;25422;48.286;8.484;2023-08-24T03:26:08;94255.91;;;15.48;100.00
39739;BME280;25422;48.286;8.484;2023-08-24T03:28:34;94251.88;;;15.52;100.00
39739;BME280;25422;48.286;8.484;2023-08-24T03:31:00;94254.50;;;15.52;100.00
39739;BME280;25422;48.286;8.484;2023-08-24T03:33:26;94263.63;;;15.57;100.00
39739;BME280;25422;48.286;8.484;2023-08-24T03:35:53;94270.13;;;15.61;100.00
39739;BME280;25422;48.286;8.484;2023-08-24T03:38:19;94263.44;;;15.58;100.00
39739;BME280;25422;48.286;8.484;2023-08-24T03:40:44;94255.34;;;15.66;100.00
39739;BME280;25422;48.286;8.484;2023-08-24T03:43:10;94246.25;;;15.76;100.00
39739;BME280;25422;48.286;8.484;2023-08-24T03:45:36;94244.00;;;15.73;100.00
39739;BME280;25422;48.286;8.484;2023-08-24T03:48:03;94242.56;;;15.63;100.00
39739;BME280;25422;48.286;8.484;2023-08-24T03:50:29;94251.47;;;15.56;100.00
39739;BME280;25422;48.286;8.484;2023-08-24T03:52:54;94245.75;;;15.45;100.00
39739;BME280;25422;48.286;8.484;2023-08-24T03:55:21;94248.56;;;15.37;100.00
39739;BME280;25422;48.286;8.484;2023-08-24T03:57:47;94243.31;;;15.37;100.00
39739;BME280;25422;48.286;8.484;2023-08-24T04:00:12;94248.56;;;15.37;100.00
39739;BME280;25422;48.286;8.484;2023-08-24T04:02:40;94247.94;;;15.35;100.00
39739;BME280;25422;48.286;8.484;2023-08-24T04:05:06;94255.25;;;15.33;100.00
39739;BME280;25422;48.286;8.484;2023-08-24T04:07:32;94255.03;;;15.28;100.00
39739;BME280;25422;48.286;8.484;2023-08-24T04:09:59;94249.94;;;15.26;100.00
39739;BME280;25422;48.286;8.484;2023-08-24T04:12:24;94242.03;;;15.26;100.00
39739;BME280;25422;48.286;8.484;2023-08-24T04:14:50;94244.28;;;15.29;100.00
39739;BME280;25422;48.286;8.484;2023-08-24T04:17:19;94240.84;;;15.29;100.00
39739;BME280;25422;48.286;8.484;2023-08-24T04:19:44;94241.28;;;15.39;100.00
39739;BME280;25422;48.286;8.484;2023-08-24T04:22:09;94239.66;;;15.45;100.00
39739;BME280;25422;48.286;8.484;2023-08-24T04:24:35;94239.88;;;15.43;100.00
39739;BME280;25422;48.286;8.484;2023-08-24T04:27:00;94240.88;;;15.49;100.00
39739;BME280;25422;48.286;8.484;2023-08-24T04:29:26;94238.47;;;15.47;100.00
39739;BME280;25422;48.286;8.484;2023-08-24T04:31:51;94227.09;;;15.40;100.00
39739;BME280;25422;48.286;8.484;2023-08-24T04:34:16;94231.72;;;15.25;100.00
39739;BME280;25422;48.286;8.484;2023-08-24T04:36:42;94231.84;;;15.16;100.00
39739;BME280;25422;48.286;8.484;2023-08-24T04:39:07;94240.78;;;15.15;100.00
39739;BME280;25422;48.286;8.484;2023-08-24T04:41:32;94228.22;;;15.17;100.00
39739;BME280;25422;48.286;8.484;2023-08-24T04:43:58;94228.63;;;15.14;100.00
39739;BME280;25422;48.286;8.484;2023-08-24T04:46:23;94222.88;;;15.04;100.00
39739;BME280;25422;48.286;8.484;2023-08-24T04:48:49;94219.00;;;15.00;100.00
39739;BME280;25422;48.286;8.484;2023-08-24T04:51:14;94216.84;;;15.10;100.00
39739;BME280;25422;48.286;8.484;2023-08-24T04:53:39;94223.41;;;15.28;100.00
39739;BME280;25422;48.286;8.484;2023-08-24T04:56:05;94228.91;;;15.40;100.00
39739;BME280;25422;48.286;8.484;2023-08-24T04:58:33;94228.34;;;15.51;100.00
39739;BME280;25422;48.286;8.484;2023-08-24T05:00:59;94221.66;;;15.62;100.00
39739;BME280;25422;48.286;8.484;2023-08-24T05:03:24;94223.50;;;15.68;100.00
39739;BME280;25422;48.286;8.484;2023-08-24T05:05:50;94227.97;;;15.74;100.00
39739;BME280;25422;48.286;8.484;2023-08-24T05:08:15;94225.19;;;15.82;100.00
39739;BME280;25422;48.286;8.484;2023-08-24T05:10:40;94220.72;;;15.90;100.00
39739;BME280;25422;48.286;8.484;2023-08-24T05:13:06;94218.72;;;16.05;100.00
39739;BME280;25422;48.286;8.484;2023-08-24T05:15:32;94211.81;;;16.17;100.00
39739;BME280;25422;48.286;8.484;2023-08-24T05:17:57;94215.06;;;16.26;100.00
39739;BME280;25422;48.286;8.484;2023-08-24T05:20:25;94215.66;;;16.42;100.00
39739;BME280;25422;48.286;8.484;2023-08-24T05:22:51;94217.88;;;16.58;100.00
39739;BME280;25422;48.286;8.484;2023-08-24T05:25:16;94213.38;;;16.72;100.00
39739;BME280;25422;48.286;8.484;2023-08-24T05:27:42;94219.50;;;16.73;100.00
39739;BME280;25422;48.286;8.484;2023-08-24T05:30:08;94215.00;;;16.73;100.00
39739;BME280;25422;48.286;8.484;2023-08-24T05:32:34;94219.66;;;16.84;100.00
39739;BME280;25422;48.286;8.484;2023-08-24T05:35:07;94215.53;;;17.09;100.00
39739;BME280;25422;48.286;8.484;2023-08-24T05:37:33;94206.63;;;17.48;100.00
39739;BME280;25422;48.286;8.484;2023-08-24T05:40:02;94218.78;;;18.01;100.00
39739;BME280;25422;48.286;8.484;2023-08-24T05:42:28;94223.25;;;18.51;100.00
39739;BME280;25422;48.286;8.484;2023-08-24T05:44:53;94219.50;;;18.84;100.00
39739;BME280;25422;48.286;8.484;2023-08-24T05:47:19;94221.28;;;18.91;100.00
39739;BME280;25422;48.286;8.484;2023-08-24T05:49:44;94214.19;;;18.84;100.00
39739;BME280;25422;48.286;8.484;2023-08-24T05:52:10;94215.50;;;18.75;100.00
39739;BME280;25422;48.286;8.484;2023-08-24T05:54:36;94206.59;;;18.69;100.00
39739;BME280;25422;48.286;8.484;2023-08-24T05:57:02;94213.41;;;18.77;100.00
39739;BME280;25422;48.286;8.484;2023-08-24T05:59:29;94205.97;;;18.67;100.00
39739;BME280;25422;48.286;8.484;2023-08-24T06:01:54;94203.69;;;18.52;100.00
39739;BME280;25422;48.286;8.484;2023-08-24T06:04:20;94205.88;;;18.56;100.00
39739;BME280;25422;48.286;8.484;2023-08-24T06:06:45;94208.28;;;18.64;100.00
39739;BME280;25422;48.286;8.484;2023-08-24T06:09:10;94202.53;;;18.67;100.00
39739;BME280;25422;48.286;8.484;2023-08-24T06:11:36;94213.66;;;18.76;100.00
39739;BME280;25422;48.286;8.484;2023-08-24T06:14:01;94208.41;;;18.69;100.00
39739;BME280;25422;48.286;8.484;2023-08-24T06:16:28;94213.41;;;18.77;100.00
39739;BME280;25422;48.286;8.484;2023-08-24T06:18:53;94208.91;;;19.21;100.00
39739;BME280;25422;48.286;8.484;2023-08-24T06:21:19;94201.75;;;19.22;100.00
39739;BME280;25422;48.286;8.484;2023-08-24T06:23:44;94193.69;;;19.47;100.00
39739;BME280;25422;48.286;8.484;2023-08-24T06:26:10;94201.63;;;19.78;100.00
39739;BME280;25422;48.286;8.484;2023-08-24T06:28:35;94191.84;;;20.20;100.00
39739;BME280;25422;48.286;8.484;2023-08-24T06:31:01;94197.78;;;20.94;100.00
39739;BME280;25422;48.286;8.484;2023-08-24T06:33:27;94195.94;;;20.82;100.00
39739;BME280;25422;48.286;8.484;2023-08-24T06:35:56;94197.66;;;20.77;100.00
39739;BME280;25422;48.286;8.484;2023-08-24T06:38:22;94207.13;;;20.49;100.00
39739;BME280;25422;48.286;8.484;2023-08-24T06:40:48;94205.00;;;20.15;100.00
39739;BME280;25422;48.286;8.484;2023-08-24T06:43:13;94219.66;;;19.76;100.00
39739;BME280;25422;48.286;8.484;2023-08-24T06:45:40;94215.63;;;19.54;100.00
39739;BME280;25422;48.286;8.484;2023-08-24T06:48:05;94222.59;;;19.37;100.00
39739;BME280;25422;48.286;8.484;2023-08-24T06:50:34;94229.34;;;19.51;100.00
39739;BME280;25422;48.286;8.484;2023-08-24T06:53:02;94231.25;;;19.63;100.00
39739;BME280;25422;48.286;8.484;2023-08-24T06:55:28;94228.09;;;20.15;100.00
39739;BME280;25422;48.286;8.484;2023-08-24T06:57:54;94220.09;;;20.81;100.00
39739;BME280;25422;48.286;8.484;2023-08-24T07:00:20;94217.66;;;21.03;100.00
39739;BME280;25422;48.286;8.484;2023-08-24T07:02:49;94219.06;;;21.46;100.00
39739;BME280;25422;48.286;8.484;2023-08-24T07:05:15;94218.84;;;21.48;100.00
39739;BME280;25422;48.286;8.484;2023-08-24T07:07:45;94229.97;;;21.85;100.00
39739;BME280;25422;48.286;8.484;2023-08-24T07:10:11;94227.19;;;22.26;100.00
39739;BME280;25422;48.286;8.484;2023-08-24T07:12:37;94219.97;;;22.38;100.00
39739;BME280;25422;48.286;8.484;2023-08-24T07:15:05;94220.56;;;23.36;100.00
39739;BME280;25422;48.286;8.484;2023-08-24T07:17:30;94210.28;;;24.97;100.00
39739;BME280;25422;48.286;8.484;2023-08-24T07:19:55;94213.84;;;25.07;100.00
39739;BME280;25422;48.286;8.484;2023-08-24T07:22:21;94207.56;;;26.49;98.24
39739;BME280;25422;48.286;8.484;2023-08-24T07:24:46;94202.47;;;28.25;78.84
39739;BME280;25422;48.286;8.484;2023-08-24T07:27:18;94200.13;;;28.53;72.27
39739;BME280;25422;48.286;8.484;2023-08-24T07:29:43;94206.19;;;28.69;68.60
39739;BME280;25422;48.286;8.484;2023-08-24T07:32:09;94189.84;;;26.89;75.49
39739;BME280;25422;48.286;8.484;2023-08-24T07:34:34;94186.31;;;27.09;71.09
39739;BME280;25422;48.286;8.484;2023-08-24T07:37:00;94186.25;;;27.30;71.37
39739;BME280;25422;48.286;8.484;2023-08-24T07:39:25;94204.66;;;28.52;65.10
39739;BME280;25422;48.286;8.484;2023-08-24T07:41:51;94192.19;;;29.69;55.99
39739;BME280;25422;48.286;8.484;2023-08-24T07:44:16;94192.53;;;30.24;52.55
39739;BME280;25422;48.286;8.484;2023-08-24T07:46:42;94198.66;;;30.30;51.80
39739;BME280;25422;48.286;8.484;2023-08-24T07:49:07;94197.66;;;29.64;55.78
39739;BME280;25422;48.286;8.484;2023-08-24T07:51:33;94206.94;;;28.74;59.94
39739;BME280;25422;48.286;8.484;2023-08-24T07:53:59;94200.50;;;28.36;63.70
39739;BME280;25422;48.286;8.484;2023-08-24T07:56:25;94197.66;;;29.39;58.72
39739;BME280;25422;48.286;8.484;2023-08-24T07:58:50;94203.84;;;29.16;58.58
39739;BME280;25422;48.286;8.484;2023-08-24T08:01:16;94193.13;;;31.34;49.28
39739;BME280;25422;48.286;8.484;2023-08-24T08:03:44;94198.78;;;32.02;46.58
39739;BME280;25422;48.286;8.484;2023-08-24T08:06:10;94200.84;;;30.80;49.59
39739;BME280;25422;48.286;8.484;2023-08-24T08:08:35;94208.31;;;32.00;46.85
39739;BME280;25422;48.286;8.484;2023-08-24T08:11:01;94200.38;;;32.03;46.42
39739;BME280;25422;48.286;8.484;2023-08-24T08:13:28;94200.22;;;30.69;48.99
39739;BME280;25422;48.286;8.484;2023-08-24T08:15:53;94204.34;;;31.83;48.69
39739;BME280;25422;48.286;8.484;2023-08-24T08:18:19;94200.28;;;32.90;44.92
39739;BME280;25422;48.286;8.484;2023-08-24T08:20:45;94198.63;;;33.12;43.62
39739;BME280;25422;48.286;8.484;2023-08-24T08:23:10;94201.81;;;33.94;41.29
39739;BME280;25422;48.286;8.484;2023-08-24T08:25:35;94200.69;;;32.02;46.31
39739;BME280;25422;48.286;8.484;2023-08-24T08:28:01;94200.22;;;33.13;44.30
39739;BME280;25422;48.286;8.484;2023-08-24T08:30:26;94201.50;;;32.02;45.86
39739;BME280;25422;48.286;8.484;2023-08-24T08:32:52;94200.38;;;32.03;46.26
39739;BME280;25422;48.286;8.484;2023-08-24T08:35:18;94199.00;;;32.42;45.82
39739;BME280;25422;48.286;8.484;2023-08-24T08:37:44;94192.16;;;32.90;43.80
39739;BME280;25422;48.286;8.484;2023-08-24T08:40:10;94203.38;;;33.06;44.18
39739;BME280;25422;48.286;8.484;2023-08-24T08:42:37;94197.84;;;33.43;43.21
39739;BME280;25422;48.286;8.484;2023-08-24T08:45:04;94206.38;;;32.14;45.21
39739;BME280;25422;48.286;8.484;2023-08-24T08:47:33;94205.56;;;32.50;45.21
39739;BME280;25422;48.286;8.484;2023-08-24T08:50:02;94200.69;;;33.06;43.14
39739;BME280;25422;48.286;8.484;2023-08-24T08:52:33;94190.53;;;31.29;48.26
39739;BME280;25422;48.286;8.484;2023-08-24T08:55:00;94193.97;;;30.88;51.24
39739;BME280;25422;48.286;8.484;2023-08-24T08:57:26;94185.38;;;30.34;53.99
39739;BME280;25422;48.286;8.484;2023-08-24T08:59:52;94186.94;;;29.77;57.39
39739;BME280;25422;48.286;8.484;2023-08-24T09:02:19;94172.38;;;29.35;61.42
39739;BME280;25422;48.286;8.484;2023-08-24T09:04:47;94175.53;;;28.59;66.52
39739;BME280;25422;48.286;8.484;2023-08-24T09:07:13;94182.31;;;27.72;74.07
39739;BME280;25422;48.286;8.484;2023-08-24T09:09:39;94165.13;;;29.36;66.00
39739;BME280;25422;48.286;8.484;2023-08-24T09:12:05;94174.16;;;30.07;61.08
39739;BME280;25422;48.286;8.484;2023-08-24T09:14:31;94171.22;;;30.42;60.34
39739;BME280;25422;48.286;8.484;2023-08-24T09:16:56;94179.91;;;31.74;52.28
39739;BME280;25422;48.286;8.484;2023-08-24T09:19:29;94182.28;;;31.90;51.32
39739;BME280;25422;48.286;8.484;2023-08-24T09:21:58;94180.34;;;32.41;49.25
39739;BME280;25422;48.286;8.484;2023-08-24T09:24:34;94170.31;;;31.54;51.43
39739;BME280;25422;48.286;8.484;2023-08-24T09:27:13;94156.47;;;31.56;53.34
39739;BME280;25422;48.286;8.484;2023-08-24T09:29:39;94163.47;;;32.44;49.21
39739;BME280;25422;48.286;8.484;2023-08-24T09:32:07;94155.66;;;32.42;48.16
39739;BME280;25422;48.286;8.484;2023-08-24T09:34:33;94156.53;;;32.29;49.83
39739;BME280;25422;48.286;8.484;2023-08-24T09:36:58;94150.19;;;32.56;49.23
39739;BME280;25422;48.286;8.484;2023-08-24T09:39:24;94155.69;;;32.97;48.33
39739;BME280;25422;48.286;8.484;2023-08-24T09:41:50;94147.06;;;32.94;47.25
39739;BME280;25422;48.286;8.484;2023-08-24T09:44:19;94146.84;;;32.82;48.48
39739;BME280;25422;48.286;8.484;2023-08-24T09:46:44;94141.13;;;33.24;45.79
39739;BME280;25422;48.286;8.484;2023-08-24T09:49:11;94141.13;;;32.61;49.41
39739;BME280;25422;48.286;8.484;2023-08-24T09:51:40;94131.09;;;31.93;49.93
39739;BME280;25422;48.286;8.484;2023-08-24T09:54:10;94121.06;;;31.43;52.26
39739;BME280;25422;48.286;8.484;2023-08-24T09:56:40;94124.47;;;31.07;55.83
39739;BME280;25422;48.286;8.484;2023-08-24T09:59:14;94125.44;;;30.98;54.96
39739;BME280;25422;48.286;8.484;2023-08-24T10:01:45;94122.47;;;32.59;50.96
39739;BME280;25422;48.286;8.484;2023-08-24T10:04:15;94111.53;;;32.96;48.74
39739;BME280;25422;48.286;8.484;2023-08-24T10:06:42;94111.91;;;32.49;50.17
39739;BME280;25422;48.286;8.484;2023-08-24T10:09:11;94106.75;;;33.42;46.13
39739;BME280;25422;48.286;8.484;2023-08-24T10:11:49;94092.66;;;32.82;47.73
39739;BME280;25422;48.286;8.484;2023-08-24T10:14:22;94108.66;;;31.28;53.19
39739;BME280;25422;48.286;8.484;2023-08-24T10:16:50;94101.75;;;31.22;54.62
39739;BME280;25422;48.286;8.484;2023-08-24T10:19:17;94098.41;;;30.23;57.46
39739;BME280;25422;48.286;8.484;2023-08-24T10:21:42;94102.38;;;30.12;59.29
39739;BME280;25422;48.286;8.484;2023-08-24T10:24:08;94094.22;;;30.91;57.84
39739;BME280;25422;48.286;8.484;2023-08-24T10:26:36;94081.22;;;30.93;54.96
39739;BME280;25422;48.286;8.484;2023-08-24T10:29:02;94087.63;;;32.13;50.86
39739;BME280;25422;48.286;8.484;2023-08-24T10:31:28;94085.28;;;31.47;52.47
39739;BME280;25422;48.286;8.484;2023-08-24T10:33:55;94084.66;;;31.27;53.76
39739;BME280;25422;48.286;8.484;2023-08-24T10:36:22;94079.75;;;31.15;54.61
39739;BME280;25422;48.286;8.484;2023-08-24T10:38:48;94073.78;;;32.37;51.70
39739;BME280;25422;48.286;8.484;2023-08-24T10:41:13;94077.75;;;31.57;51.72
39739;BME280;25422;48.286;8.484;2023-08-24T10:43:48;94066.28;;;32.11;51.10
39739;BME280;25422;48.286;8.484;2023-08-24T10:46:15;94068.13;;;32.24;50.55
39739;BME280;25422;48.286;8.484;2023-08-24T10:53:38;94065.94;;;31.67;52.47
39739;BME280;25422;48.286;8.484;2023-08-24T10:56:15;94064.81;;;32.90;48.47
39739;BME280;25422;48.286;8.484;2023-08-24T10:58:42;94061.44;;;33.25;46.79
39739;BME280;25422;48.286;8.484;2023-08-24T11:01:16;94062.13;;;32.14;49.13
39739;BME280;25422;48.286;8.484;2023-08-24T11:03:49;94056.53;;;31.65;52.78
39739;BME280;25422;48.286;8.484;2023-08-24T11:06:21;94052.06;;;31.46;51.85
39739;BME280;25422;48.286;8.484;2023-08-24T11:08:47;94059.00;;;31.75;52.70
39739;BME280;25422;48.286;8.484;2023-08-24T11:11:23;94047.13;;;31.62;52.72
39739;BME280;25422;48.286;8.484;2023-08-24T11:14:18;94046.34;;;31.61;54.09
39739;BME280;25422;48.286;8.484;2023-08-24T11:16:48;94049.63;;;32.18;50.60
39739;BME280;25422;48.286;8.484;2023-08-24T11:19:15;94046.84;;;31.86;51.06
39739;BME280;25422;48.286;8.484;2023-08-24T11:21:42;94043.56;;;33.33;49.15
39739;BME280;25422;48.286;8.484;2023-08-24T11:24:17;94042.94;;;34.23;45.81
39739;BME280;25422;48.286;8.484;2023-08-24T11:26:47;94034.47;;;34.81;41.43
39739;BME280;25422;48.286;8.484;2023-08-24T11:29:13;94029.34;;;34.79;41.04
39739;BME280;25422;48.286;8.484;2023-08-24T11:31:40;94032.78;;;34.68;41.03
39739;BME280;25422;48.286;8.484;2023-08-24T11:34:06;94025.34;;;34.47;40.54
39739;BME280;25422;48.286;8.484;2023-08-24T11:37:02;94028.28;;;35.32;40.27
39739;BME280;25422;48.286;8.484;2023-08-24T11:39:27;94032.84;;;35.70;39.65
39739;BME280;25422;48.286;8.484;2023-08-24T11:41:58;94025.38;;;34.29;40.43
39739;BME280;25422;48.286;8.484;2023-08-24T11:44:24;94020.47;;;33.79;42.06
39739;BME280;25422;48.286;8.484;2023-08-24T11:46:50;94016.59;;;34.33;40.81
39739;BME280;25422;48.286;8.484;2023-08-24T11:49:15;94019.81;;;34.65;40.87
39739;BME280;25422;48.286;8.484;2023-08-24T11:51:41;94021.84;;;35.15;40.46
39739;BME280;25422;48.286;8.484;2023-08-24T11:54:06;94021.22;;;36.15;39.41
39739;BME280;25422;48.286;8.484;2023-08-24T11:56:31;94012.13;;;35.99;37.30
39739;BME280;25422;48.286;8.484;2023-08-24T11:58:57;94014.22;;;36.14;36.52
39739;BME280;25422;48.286;8.484;2023-08-24T12:01:22;94015.50;;;37.12;36.11
39739;BME280;25422;48.286;8.484;2023-08-24T12:03:49;94010.06;;;37.00;35.13
39739;BME280;25422;48.286;8.484;2023-08-24T12:06:16;94012.91;;;36.33;35.90
39739;BME280;25422;48.286;8.484;2023-08-24T12:08:45;94013.00;;;35.48;37.34
39739;BME280;25422;48.286;8.484;2023-08-24T12:11:16;94013.53;;;35.41;38.35
39739;BME280;25422;48.286;8.484;2023-08-24T12:13:52;94005.44;;;35.03;39.31
39739;BME280;25422;48.286;8.484;2023-08-24T12:16:21;94009.16;;;33.94;40.83
39739;BME280;25422;48.286;8.484;2023-08-24T12:18:58;94006.75;;;33.75;41.64
39739;BME280;25422;48.286;8.484;2023-08-24T12:21:25;94001.13;;;33.98;41.75
39739;BME280;25422;48.286;8.484;2023-08-24T12:24:02;93997.81;;;34.96;39.57
39739;BME280;25422;48.286;8.484;2023-08-24T12:26:31;93991.31;;;34.41;41.21
39739;BME280;25422;48.286;8.484;2023-08-24T12:29:02;94000.66;;;35.51;39.86
39739;BME280;25422;48.286;8.484;2023-08-24T12:31:31;93990.19;;;34.89;40.46
39739;BME280;25422;48.286;8.484;2023-08-24T12:34:02;93972.25;;;36.27;37.26
39739;BME280;25422;48.286;8.484;2023-08-24T12:36:28;93979.75;;;36.18;38.53
39739;BME280;25422;48.286;8.484;2023-08-24T12:38:54;93975.25;;;36.01;38.22
39739;BME280;25422;48.286;8.484;2023-08-24T12:41:19;93966.88;;;36.40;37.30
39739;BME280;25422;48.286;8.484;2023-08-24T12:43:45;93969.81;;;37.34;35.50
39739;BME280;25422;48.286;8.484;2023-08-24T12:46:10;93955.63;;;36.78;36.66
39739;BME280;25422;48.286;8.484;2023-08-24T12:48:36;93953.94;;;36.74;36.55
39739;BME280;25422;48.286;8.484;2023-08-24T12:51:01;93952.94;;;37.72;34.42
39739;BME280;25422;48.286;8.484;2023-08-24T12:53:26;93942.16;;;38.52;33.42
39739;BME280;25422;48.286;8.484;2023-08-24T12:55:52;93945.69;;;38.85;32.70
39739;BME280;25422;48.286;8.484;2023-08-24T12:58:17;93942.25;;;38.56;33.72